This is the latest recevied weather packets stored in our database for station/object VK3ANZ. If no packets are shown the sender has not sent any weather packets the latest 10 day(s).
| Time | Temp. | Humidity | Pressure | Rain* | Wind** | Luminosity | Snow |
|---|---|---|---|---|---|---|---|
| 1777763117 | 19.44° C | 27% | 1013.2 hPa | 0 mm | - | 47 W/m² | - |
| 1777762526 | 19.44° C | 27% | 1013.4 hPa | 0 mm | - | 76 W/m² | - |
| 1777761366 | 18.33° C | 29% | 1013.3 hPa | 0 mm | - | 73 W/m² | - |
| 1777758318 | 17.78° C | 33% | 1013.4 hPa | 0 mm | - | 14 W/m² | - |
| 1777755918 | 18.33° C | 31% | 1013.7 hPa | 0 mm | - | 0 W/m² | - |
| 1777751719 | 19.44° C | 22% | 1014.4 hPa | 0 mm | - | 0 W/m² | - |
| 1777748125 | 20.56° C | 20% | 1013.4 hPa | 0 mm | - | 0 W/m² | - |
| 1777747526 | 20.56° C | 19% | 1013.5 hPa | 0 mm | - | 0 W/m² | - |
| 1777746925 | 21.11° C | 18% | 1013.5 hPa | 0 mm | - | 0 W/m² | - |
| 1777745118 | 20.56° C | 19% | 1013.8 hPa | 0 mm | - | 0 W/m² | - |
| 1777736730 | 21.11° C | 16% | 1014.1 hPa | 0 mm | - | 0 W/m² | - |
| 1777731917 | 21.11° C | 16% | 1014.7 hPa | 0 mm | - | 0 W/m² | - |
| 1777728368 | 21.11° C | 16% | 1015.3 hPa | 0 mm | - | 0 W/m² | - |
| 1777727117 | 21.11° C | 16% | 1015.5 hPa | 0 mm | - | 0 W/m² | - |
| 1777726525 | 21.67° C | 17% | 1015.7 hPa | 0 mm | - | 0 W/m² | - |
| 1777722322 | 20.56° C | 16% | 1015.9 hPa | 0 mm | - | 0 W/m² | - |
| 1777721724 | 20.56° C | 17% | 1015.9 hPa | 0 mm | - | 0 W/m² | - |
| 1777719916 | 20° C | 17% | 1016.2 hPa | 0 mm | - | 0 W/m² | - |
| 1777718737 | 20° C | 18% | 1016.1 hPa | 0 mm | - | 0 W/m² | - |
| 1777712733 | 21.11° C | 16% | 1016.4 hPa | 0 mm | - | 0 W/m² | - |
| 1777706144 | 22.22° C | 15% | 1016.1 hPa | 0 mm | - | 6 W/m² | - |
| 1777703132 | 23.33° C | 12% | 1016.2 hPa | 0 mm | - | 45 W/m² | - |
| 1777701324 | 25° C | 11% | 1016.3 hPa | 0 mm | - | 69 W/m² | - |
| 1777700717 | 25° C | 10% | 1016.3 hPa | 0 mm | - | 86 W/m² | - |
| 1777700123 | 25° C | 10% | 1016.4 hPa | 0 mm | - | 90 W/m² | - |
* Rain latest hour (hover to see other rain measurements)
** Current wind speed in m/s (hover to see current wind gust speed)